createdAt,value
2024-04-24T00:01:53.256Z,96316.53
2024-04-24T00:04:20.810Z,96314.40
2024-04-24T00:06:48.227Z,96311.13
2024-04-24T00:09:15.623Z,96304.57
2024-04-24T00:11:43.264Z,96300.95
2024-04-24T00:14:10.978Z,96293.05
2024-04-24T00:16:38.633Z,96290.34
2024-04-24T00:19:06.408Z,96298.88
2024-04-24T00:21:33.892Z,96294.04
2024-04-24T00:24:01.442Z,96296.98
2024-04-24T00:26:28.865Z,96283.45
2024-04-24T00:28:56.718Z,96273.98
2024-04-24T00:31:24.262Z,96263.45
2024-04-24T00:33:51.820Z,96269.73
2024-04-24T00:36:19.517Z,96261.70
2024-04-24T00:38:46.968Z,96265.81
2024-04-24T00:41:14.686Z,96256.50
2024-04-24T00:43:42.309Z,96265.27
2024-04-24T00:46:11.979Z,96262.08
2024-04-24T00:48:41.324Z,96265.15
2024-04-24T00:51:10.305Z,96269.58
2024-04-24T00:53:38.184Z,96271.09
2024-04-24T00:56:06.665Z,96266.53
2024-04-24T00:58:37.877Z,96261.11
2024-04-24T01:01:06.375Z,96268.51
2024-04-24T01:03:33.972Z,96261.45
2024-04-24T01:06:01.408Z,96261.45
2024-04-24T01:08:29.389Z,96262.02
2024-04-24T01:11:00.596Z,96255.38
2024-04-24T01:13:28.268Z,96249.31
2024-04-24T01:16:10.448Z,96261.78
2024-04-24T01:18:41.076Z,96259.37
2024-04-24T01:21:17.041Z,96250.17
2024-04-24T01:24:05.979Z,96253.02
2024-04-24T01:26:46.669Z,96249.80
2024-04-24T01:29:17.806Z,96240.38
2024-04-24T01:31:53.183Z,96239.09
2024-04-24T01:34:21.587Z,96230.33
2024-04-24T01:37:01.608Z,96234.17
2024-04-24T01:39:32.525Z,96236.02
2024-04-24T01:42:00.454Z,96240.98
2024-04-24T01:44:27.870Z,96234.13
2024-04-24T01:46:55.299Z,96227.28
2024-04-24T01:49:22.655Z,96226.87
2024-04-24T01:51:50.250Z,96234.50
2024-04-24T01:54:17.899Z,96236.13
2024-04-24T01:56:45.317Z,96227.60
2024-04-24T01:59:12.920Z,96217.89
2024-04-24T02:01:40.577Z,96215.43
2024-04-24T02:04:08.289Z,96216.12
2024-04-24T02:06:35.740Z,96211.95
2024-04-24T02:09:03.391Z,96207.08
2024-04-24T02:11:35.345Z,96209.36
2024-04-24T02:14:02.170Z,96209.73
2024-04-24T02:16:29.983Z,96210.50
2024-04-24T02:18:57.871Z,96211.86
2024-04-24T02:21:25.608Z,96206.00
2024-04-24T02:23:53.196Z,96213.34
2024-04-24T02:26:21.014Z,96208.91
2024-04-24T02:28:48.705Z,96207.14
2024-04-24T02:31:16.808Z,96216.61
2024-04-24T02:33:44.311Z,96216.61
2024-04-24T02:36:12.054Z,96222.80
2024-04-24T02:38:39.906Z,96212.77
2024-04-24T02:41:07.461Z,96209.16
2024-04-24T02:43:35.340Z,96214.20
2024-04-24T02:46:03.039Z,96206.17
2024-04-24T02:48:30.634Z,96199.13
2024-04-24T02:50:58.190Z,96197.89
2024-04-24T02:53:25.877Z,96188.70
2024-04-24T02:55:53.516Z,96179.97
2024-04-24T02:58:21.101Z,96183.63
2024-04-24T03:00:48.817Z,96182.19
2024-04-24T03:03:16.558Z,96188.53
2024-04-24T03:05:44.351Z,96183.07
2024-04-24T03:08:11.872Z,96186.14
2024-04-24T03:10:39.551Z,96183.83
2024-04-24T03:13:08.871Z,96180.13
2024-04-24T03:15:36.383Z,96175.80
2024-04-24T03:18:04.471Z,96173.16
2024-04-24T03:20:32.129Z,96168.92
2024-04-24T03:22:59.823Z,96163.95
2024-04-24T03:25:27.503Z,96166.38
2024-04-24T03:27:55.200Z,96166.31
2024-04-24T03:30:22.651Z,96165.30
2024-04-24T03:32:50.186Z,96167.94
2024-04-24T03:35:17.914Z,96171.58
2024-04-24T03:37:45.790Z,96167.08
2024-04-24T03:40:13.422Z,96161.05
2024-04-24T03:42:40.847Z,96160.41
2024-04-24T03:45:08.648Z,96160.91
2024-04-24T03:47:36.649Z,96165.88
2024-04-24T03:50:05.549Z,96172.44
2024-04-24T03:52:33.171Z,96166.04
2024-04-24T03:55:00.716Z,96170.80
2024-04-24T03:57:28.356Z,96171.38
2024-04-24T03:59:56.191Z,96167.45
2024-04-24T04:02:23.949Z,96170.52
2024-04-24T04:04:51.625Z,96164.33
2024-04-24T04:07:19.054Z,96163.31
2024-04-24T04:09:46.411Z,96157.69
2024-04-24T04:12:14.136Z,96154.57
2024-04-24T04:14:41.633Z,96162.82
2024-04-24T04:17:09.617Z,96168.81
2024-04-24T04:19:37.295Z,96166.80
2024-04-24T04:22:04.893Z,96170.66
2024-04-24T04:24:32.381Z,96173.58
2024-04-24T04:26:59.836Z,96169.30
2024-04-24T04:29:27.410Z,96175.63
2024-04-24T04:31:54.991Z,96176.98
2024-04-24T04:34:22.661Z,96175.86
2024-04-24T04:36:50.285Z,96167.17
2024-04-24T04:39:17.836Z,96173.36
2024-04-24T04:41:45.511Z,96173.36
2024-04-24T04:44:12.944Z,96169.52
2024-04-24T04:46:40.517Z,96162.95
2024-04-24T04:49:08.191Z,96161.84
2024-04-24T04:51:36.629Z,96168.89
2024-04-24T04:54:04.240Z,96171.30
2024-04-24T04:56:31.749Z,96169.89
2024-04-24T04:58:59.179Z,96168.08
2024-04-24T05:01:26.839Z,96171.95
2024-04-24T05:03:55.648Z,96167.66
2024-04-24T05:06:23.351Z,96166.66
2024-04-24T05:08:53.134Z,96168.36
2024-04-24T05:11:20.238Z,96165.75
2024-04-24T05:13:47.807Z,96164.02
2024-04-24T05:16:15.386Z,96162.66
2024-04-24T05:18:43.043Z,96163.54
2024-04-24T05:21:10.816Z,96161.73
2024-04-24T05:23:40.348Z,96159.92
2024-04-24T05:26:26.116Z,96166.39
2024-04-24T05:29:05.274Z,96174.51
2024-04-24T05:31:38.598Z,96168.22
2024-04-24T05:34:09.715Z,96171.77
2024-04-24T05:36:39.487Z,96168.14
2024-04-24T05:39:06.916Z,96166.20
2024-04-24T05:41:34.711Z,96171.25
2024-04-24T05:44:02.384Z,96170.27
2024-04-24T05:46:31.743Z,96173.56
2024-04-24T05:49:01.765Z,96166.78
2024-04-24T05:51:29.341Z,96171.57
2024-04-24T05:53:58.772Z,96167.70
2024-04-24T05:56:26.613Z,96168.08
2024-04-24T05:58:54.223Z,96178.35
2024-04-24T06:01:21.825Z,96170.22
2024-04-24T06:03:49.213Z,96169.27
2024-04-24T06:06:16.673Z,96174.92
2024-04-24T06:08:44.160Z,96169.70
2024-04-24T06:11:11.857Z,96165.05
2024-04-24T06:13:39.268Z,96169.17
2024-04-24T06:16:07.104Z,96164.59
2024-04-24T06:18:34.628Z,96168.28
2024-04-24T06:21:02.751Z,96176.48
2024-04-24T06:23:30.488Z,96164.27
2024-04-24T06:25:58.131Z,96159.67
2024-04-24T06:28:25.543Z,96162.44
2024-04-24T06:30:52.999Z,96160.36
2024-04-24T06:33:20.819Z,96160.81
2024-04-24T06:35:48.567Z,96167.96
2024-04-24T06:38:16.345Z,96167.69
2024-04-24T06:40:43.917Z,96162.56
2024-04-24T06:43:11.546Z,96159.94
2024-04-24T06:45:38.908Z,96155.97
2024-04-24T06:48:07.101Z,96154.95
2024-04-24T06:50:34.915Z,96160.33
2024-04-24T06:53:02.433Z,96152.51
2024-04-24T06:55:31.012Z,96150.66
2024-04-24T06:58:00.763Z,96156.25
2024-04-24T07:00:29.884Z,96159.28
2024-04-24T07:02:57.747Z,96149.33
2024-04-24T07:05:25.274Z,96146.72
2024-04-24T07:07:52.821Z,96150.12
2024-04-24T07:10:20.219Z,96157.23
2024-04-24T07:12:49.347Z,96147.83
2024-04-24T07:15:17.165Z,96142.45
2024-04-24T07:17:45.556Z,96146.08
2024-04-24T07:20:13.392Z,96139.58
2024-04-24T07:22:40.864Z,96133.20
2024-04-24T07:25:08.220Z,96142.98
2024-04-24T07:27:35.846Z,96143.59
2024-04-24T07:30:05.978Z,96147.70
2024-04-24T07:32:33.507Z,96152.42
2024-04-24T07:35:01.202Z,96153.59
2024-04-24T07:37:28.933Z,96150.84
2024-04-24T07:39:56.678Z,96147.13
2024-04-24T07:42:24.254Z,96142.83
2024-04-24T07:44:51.773Z,96145.39
2024-04-24T07:47:19.334Z,96141.52
2024-04-24T07:49:46.897Z,96138.03
2024-04-24T07:52:14.699Z,96137.88
2024-04-24T07:54:42.831Z,96142.74
2024-04-24T07:57:10.519Z,96141.56
2024-04-24T07:59:37.909Z,96136.13
2024-04-24T08:02:05.540Z,96146.06
2024-04-24T08:04:33.133Z,96144.73
2024-04-24T08:07:00.818Z,96151.36
2024-04-24T08:09:28.367Z,96147.86
2024-04-24T08:11:56.012Z,96145.50
2024-04-24T08:14:23.703Z,96144.72
2024-04-24T08:16:51.318Z,96148.63
2024-04-24T08:19:18.981Z,96159.16
2024-04-24T08:21:46.418Z,96146.29
2024-04-24T08:24:14.103Z,96149.58
2024-04-24T08:26:41.486Z,96142.01
2024-04-24T08:29:09.072Z,96150.17
2024-04-24T08:31:36.622Z,96153.08
2024-04-24T08:34:04.351Z,96152.48
2024-04-24T08:36:31.823Z,96153.08
2024-04-24T08:39:00.288Z,96145.84
2024-04-24T08:41:28.221Z,96131.41
2024-04-24T08:43:56.920Z,96143.33
2024-04-24T08:46:27.856Z,96140.42
2024-04-24T08:48:56.243Z,96134.92
2024-04-24T08:51:24.870Z,96136.32
2024-04-24T08:53:55.691Z,96134.37
2024-04-24T08:56:27.290Z,96143.52
2024-04-24T08:58:57.473Z,96140.73
2024-04-24T09:01:26.746Z,96141.30
2024-04-24T09:03:58.114Z,96139.70
2024-04-24T09:06:27.226Z,96134.75
2024-04-24T09:08:55.112Z,96125.56
2024-04-24T09:11:25.132Z,96138.83
2024-04-24T09:13:54.204Z,96138.02
2024-04-24T09:16:22.453Z,96133.12
2024-04-24T09:19:03.431Z,96136.08
2024-04-24T09:21:31.989Z,96134.86
2024-04-24T09:23:59.646Z,96142.78
2024-04-24T09:26:27.679Z,96142.78
2024-04-24T09:28:56.036Z,96144.73
2024-04-24T09:31:24.088Z,96146.13
2024-04-24T09:33:51.963Z,96149.44
2024-04-24T09:36:20.005Z,96145.10
2024-04-24T09:38:47.762Z,96145.84
2024-04-24T09:41:15.808Z,96131.88
2024-04-24T09:43:43.616Z,96137.83
2024-04-24T09:46:12.717Z,96137.91
2024-04-24T09:48:41.080Z,96133.65
2024-04-24T09:51:10.347Z,96138.41
2024-04-24T09:53:37.959Z,96134.01
2024-04-24T09:56:18.022Z,96127.58
2024-04-24T09:58:49.129Z,96126.98
2024-04-24T10:01:20.622Z,96132.95
2024-04-24T10:03:49.887Z,96130.28
2024-04-24T10:06:20.986Z,96127.89
2024-04-24T10:08:50.778Z,96135.43
2024-04-24T10:11:20.897Z,96120.63
2024-04-24T10:13:49.630Z,96118.73
2024-04-24T10:16:17.409Z,96124.47
2024-04-24T10:18:45.854Z,96129.66
2024-04-24T10:21:13.566Z,96121.06
2024-04-24T10:23:42.452Z,96123.06
2024-04-24T10:26:10.745Z,96123.93
2024-04-24T10:28:39.426Z,96125.22
2024-04-24T10:31:07.639Z,96127.96
2024-04-24T10:33:36.504Z,96129.59
2024-04-24T10:36:04.957Z,96123.55
2024-04-24T10:38:33.522Z,96123.97
2024-04-24T10:41:01.327Z,96124.25
2024-04-24T10:43:30.904Z,96129.14
2024-04-24T10:46:00.191Z,96127.27
2024-04-24T10:48:48.017Z,96136.66
2024-04-24T10:51:18.982Z,96140.62
2024-04-24T10:53:56.006Z,96141.39
2024-04-24T10:56:18.213Z,96140.49
2024-04-24T10:58:53.419Z,96147.14
2024-04-24T11:01:24.959Z,96139.97
2024-04-24T11:03:52.066Z,96144.90
2024-04-24T11:06:19.829Z,96146.20
2024-04-24T11:08:51.381Z,96153.48
2024-04-24T11:11:23.124Z,96150.23
2024-04-24T11:14:04.431Z,96163.44
2024-04-24T11:16:32.312Z,96161.94
2024-04-24T11:18:59.965Z,96156.48
2024-04-24T11:21:27.997Z,96161.98
2024-04-24T11:23:56.752Z,96161.04
2024-04-24T11:26:29.287Z,96162.05
2024-04-24T11:29:05.712Z,96165.88
2024-04-24T11:31:42.844Z,96168.50
2024-04-24T11:34:11.630Z,96156.91
2024-04-24T11:36:40.328Z,96160.39
2024-04-24T11:39:08.489Z,96163.30
2024-04-24T11:41:38.871Z,96159.03
2024-04-24T11:44:07.106Z,96161.89
2024-04-24T11:46:35.907Z,96159.02
2024-04-24T11:49:06.597Z,96158.48
2024-04-24T11:51:37.207Z,96161.82
2024-04-24T11:54:05.111Z,96157.31
2024-04-24T11:56:37.574Z,96160.28
2024-04-24T11:59:05.342Z,96155.52
2024-04-24T12:01:34.622Z,96158.30
2024-04-24T12:04:04.250Z,96158.55
2024-04-24T12:06:42.467Z,96159.61
2024-04-24T12:09:15.142Z,96159.25
2024-04-24T12:11:44.078Z,96155.25
2024-04-24T12:14:16.828Z,96158.26
2024-04-24T12:16:44.533Z,96154.52
2024-04-24T12:19:12.930Z,96154.31
2024-04-24T12:21:40.598Z,96162.55
2024-04-24T12:24:08.262Z,96169.19
2024-04-24T12:26:35.817Z,96160.27
2024-04-24T12:29:03.309Z,96156.62
2024-04-24T12:31:30.955Z,96152.04
2024-04-24T12:33:58.715Z,96149.76
2024-04-24T12:36:26.478Z,96157.36
2024-04-24T12:38:54.215Z,96155.34
2024-04-24T12:41:21.919Z,96158.45
2024-04-24T12:43:49.698Z,96157.45
2024-04-24T12:46:17.319Z,96156.67
2024-04-24T12:48:45.179Z,96150.92
2024-04-24T12:51:12.883Z,96159.22
2024-04-24T12:53:40.457Z,96156.61
2024-04-24T12:56:08.373Z,96151.58
2024-04-24T12:58:36.399Z,96158.90
2024-04-24T13:01:04.209Z,96167.48
2024-04-24T13:03:32.043Z,96161.81
2024-04-24T13:05:59.734Z,96154.27
2024-04-24T13:08:27.385Z,96160.34
2024-04-24T13:10:55.242Z,96157.25
2024-04-24T13:13:22.928Z,96146.68
2024-04-24T13:15:50.334Z,96149.55
2024-04-24T13:18:20.644Z,96154.15
2024-04-24T13:20:47.736Z,96158.69
2024-04-24T13:23:15.617Z,96155.14
2024-04-24T13:25:47.604Z,96154.02
2024-04-24T13:28:15.513Z,96156.04
2024-04-24T13:30:43.996Z,96156.08
2024-04-24T13:33:11.559Z,96164.42
2024-04-24T13:35:39.384Z,96157.39
2024-04-24T13:38:07.483Z,96164.50
2024-04-24T13:40:34.988Z,96166.67
2024-04-24T13:43:02.602Z,96175.84
2024-04-24T13:45:30.870Z,96181.11
2024-04-24T13:47:58.777Z,96182.36
2024-04-24T13:50:26.347Z,96180.44
2024-04-24T13:52:54.064Z,96184.19
2024-04-24T13:55:21.658Z,96186.33
2024-04-24T13:57:49.269Z,96197.27
2024-04-24T14:00:18.056Z,96200.62
2024-04-24T14:02:47.669Z,96195.06
2024-04-24T14:05:15.388Z,96198.37
2024-04-24T14:07:42.875Z,96199.74
2024-04-24T14:10:10.529Z,96191.39
2024-04-24T14:12:37.937Z,96197.53
2024-04-24T14:15:07.462Z,96199.75
2024-04-24T14:17:37.048Z,96190.95
2024-04-24T14:20:05.963Z,96188.47
2024-04-24T14:22:33.763Z,96187.50
2024-04-24T14:25:01.190Z,96175.80
2024-04-24T14:27:28.842Z,96182.61
2024-04-24T14:29:56.392Z,96172.05
2024-04-24T14:32:24.199Z,96172.36
2024-04-24T14:34:51.666Z,96183.44
2024-04-24T14:37:19.206Z,96181.94
2024-04-24T14:39:46.802Z,96185.19
2024-04-24T14:42:14.455Z,96194.78
2024-04-24T14:44:41.859Z,96195.79
2024-04-24T14:47:09.550Z,96198.81
2024-04-24T14:49:37.347Z,96205.19
2024-04-24T14:52:05.303Z,96211.84
2024-04-24T14:54:32.910Z,96224.98
2024-04-24T14:57:00.471Z,96217.21
2024-04-24T14:59:28.167Z,96215.30
2024-04-24T15:01:55.865Z,96215.19
2024-04-24T15:04:23.540Z,96210.76
2024-04-24T15:07:08.755Z,96205.72
2024-04-24T15:09:36.347Z,96209.30
2024-04-24T15:12:04.717Z,96208.53
2024-04-24T15:14:35.534Z,96198.75
2024-04-24T15:17:03.167Z,96197.78
2024-04-24T15:19:30.887Z,96197.14
2024-04-24T15:21:59.227Z,96193.11
2024-04-24T15:24:27.139Z,96195.78
2024-04-24T15:26:54.774Z,96193.73
2024-04-24T15:29:22.257Z,96198.59
2024-04-24T15:31:49.953Z,96191.73
2024-04-24T15:34:17.487Z,96197.98
2024-04-24T15:36:46.264Z,96203.52
2024-04-24T15:39:13.704Z,96198.88
2024-04-24T15:41:41.882Z,96196.98
2024-04-24T15:44:09.584Z,96194.05
2024-04-24T15:46:37.905Z,96186.85
2024-04-24T15:49:05.632Z,96186.52
2024-04-24T15:51:33.117Z,96183.40
2024-04-24T15:54:00.760Z,96183.20
2024-04-24T15:56:28.386Z,96187.12
2024-04-24T15:58:55.921Z,96191.56
2024-04-24T16:01:23.516Z,96191.28
2024-04-24T16:03:51.226Z,96194.94
2024-04-24T16:06:18.946Z,96192.92
2024-04-24T16:08:46.453Z,96180.77
2024-04-24T16:11:13.919Z,96183.09
2024-04-24T16:13:41.895Z,96183.09
2024-04-24T16:16:09.465Z,96186.97
2024-04-24T16:18:43.066Z,96187.34
2024-04-24T16:21:06.303Z,96185.78
2024-04-24T16:23:34.075Z,96192.81
2024-04-24T16:26:02.315Z,96198.29
2024-04-24T16:28:30.065Z,96195.78
2024-04-24T16:30:57.559Z,96200.46
2024-04-24T16:33:25.081Z,96200.23
2024-04-24T16:35:52.891Z,96195.32
2024-04-24T16:38:21.161Z,96202.01
2024-04-24T16:40:48.898Z,96201.64
2024-04-24T16:43:16.644Z,96220.87
2024-04-24T16:45:44.906Z,96227.02
2024-04-24T16:48:14.407Z,96233.58
2024-04-24T16:50:42.170Z,96228.03
2024-04-24T16:53:09.634Z,96238.27
2024-04-24T16:55:37.104Z,96240.04
2024-04-24T16:58:04.900Z,96247.09
2024-04-24T17:00:32.570Z,96241.45
2024-04-24T17:03:01.457Z,96240.86
2024-04-24T17:05:31.586Z,96243.42
2024-04-24T17:07:59.295Z,96243.80
2024-04-24T17:10:26.838Z,96222.13
2024-04-24T17:12:54.490Z,96220.55
2024-04-24T17:15:21.947Z,96218.02
2024-04-24T17:17:49.562Z,96224.98
2024-04-24T17:20:17.157Z,96231.20
2024-04-24T17:22:44.790Z,96240.53
2024-04-24T17:25:13.682Z,96257.47
2024-04-24T17:27:42.242Z,96268.95
2024-04-24T17:30:12.378Z,96273.42
2024-04-24T17:32:40.309Z,96280.61
2024-04-24T17:35:08.000Z,96286.83
2024-04-24T17:37:35.443Z,96281.74
2024-04-24T17:40:03.164Z,96277.05
2024-04-24T17:42:30.578Z,96280.15
2024-04-24T17:44:57.977Z,96283.63
2024-04-24T17:47:26.677Z,96286.16
2024-04-24T17:49:54.233Z,96281.66
2024-04-24T17:52:22.462Z,96280.28
2024-04-24T17:54:50.109Z,96275.02
2024-04-24T17:57:17.740Z,96285.31
2024-04-24T17:59:45.293Z,96282.17
2024-04-24T18:02:12.860Z,96277.70
2024-04-24T18:04:40.469Z,96280.80
2024-04-24T18:07:07.961Z,96289.53
2024-04-24T18:09:35.533Z,96293.95
2024-04-24T18:12:04.118Z,96303.59
2024-04-24T18:14:31.861Z,96314.44
2024-04-24T18:16:59.531Z,96315.52
2024-04-24T18:19:27.085Z,96331.81
2024-04-24T18:21:54.799Z,96331.33
2024-04-24T18:24:24.443Z,96329.27
2024-04-24T18:26:51.898Z,96340.08
2024-04-24T18:29:19.640Z,96346.26
2024-04-24T18:31:47.255Z,96345.21
2024-04-24T18:34:16.522Z,96359.36
2024-04-24T18:36:44.490Z,96369.84
2024-04-24T18:39:12.080Z,96373.30
2024-04-24T18:41:39.600Z,96385.75
2024-04-24T18:44:07.255Z,96381.27
2024-04-24T18:46:34.781Z,96379.09
2024-04-24T18:49:02.511Z,96381.37
2024-04-24T18:51:31.941Z,96374.19
2024-04-24T18:54:00.056Z,96372.09
2024-04-24T18:56:27.823Z,96375.20
2024-04-24T18:58:55.435Z,96381.61
2024-04-24T19:01:23.307Z,96386.82
2024-04-24T19:03:50.939Z,96390.30
2024-04-24T19:06:18.538Z,96392.20
2024-04-24T19:08:45.939Z,96391.15
2024-04-24T19:11:13.497Z,96400.27
2024-04-24T19:13:41.030Z,96411.88
2024-04-24T19:16:08.775Z,96405.81
2024-04-24T19:18:36.408Z,96416.09
2024-04-24T19:21:05.727Z,96415.61
2024-04-24T19:23:33.391Z,96421.13
2024-04-24T19:26:01.364Z,96417.38
2024-04-24T19:28:28.784Z,96417.91
2024-04-24T19:30:56.359Z,96425.05
2024-04-24T19:33:24.821Z,96431.64
2024-04-24T19:35:53.639Z,96426.35
2024-04-24T19:38:24.357Z,96431.01
2024-04-24T19:40:51.838Z,96434.10
2024-04-24T19:43:19.499Z,96438.76
2024-04-24T19:45:46.945Z,96435.00
2024-04-24T19:48:15.445Z,96447.70
2024-04-24T19:50:43.211Z,96455.85
2024-04-24T19:53:10.962Z,96460.42
2024-04-24T19:55:38.689Z,96455.07
2024-04-24T19:58:06.289Z,96462.39
2024-04-24T20:00:33.844Z,96467.21
2024-04-24T20:03:01.889Z,96462.91
2024-04-24T20:05:31.120Z,96460.70
2024-04-24T20:07:58.576Z,96458.94
2024-04-24T20:10:26.135Z,96460.88
2024-04-24T20:12:53.668Z,96456.95
2024-04-24T20:15:21.242Z,96463.53
2024-04-24T20:17:48.921Z,96473.05
2024-04-24T20:20:16.552Z,96470.00
2024-04-24T20:22:45.339Z,96480.74
2024-04-24T20:25:13.040Z,96490.55
2024-04-24T20:27:40.444Z,96493.78
2024-04-24T20:30:08.666Z,96492.22
2024-04-24T20:32:36.476Z,96497.42
2024-04-24T20:35:04.780Z,96510.22
2024-04-24T20:37:32.456Z,96516.39
2024-04-24T20:39:59.826Z,96518.40
2024-04-24T20:42:27.449Z,96537.47
2024-04-24T20:44:56.807Z,96532.34
2024-04-24T20:47:24.428Z,96534.06
2024-04-24T20:49:51.844Z,96528.77
2024-04-24T20:52:19.289Z,96535.35
2024-04-24T20:54:46.843Z,96529.21
2024-04-24T20:57:14.236Z,96534.06
2024-04-24T20:59:41.886Z,96534.64
2024-04-24T21:02:11.291Z,96534.98
2024-04-24T21:04:39.088Z,96535.77
2024-04-24T21:07:06.629Z,96537.12
2024-04-24T21:09:35.860Z,96529.92
2024-04-24T21:12:03.964Z,96529.92
2024-04-24T21:14:31.943Z,96524.49
2024-04-24T21:16:59.671Z,96517.06
2024-04-24T21:19:27.032Z,96509.00
2024-04-24T21:21:54.637Z,96509.92
2024-04-24T21:24:22.224Z,96516.91
2024-04-24T21:26:50.386Z,96512.22
2024-04-24T21:29:18.099Z,96520.63
2024-04-24T21:31:46.640Z,96508.99
2024-04-24T21:34:14.215Z,96500.92
2024-04-24T21:36:41.826Z,96497.50
2024-04-24T21:39:11.200Z,96500.22
2024-04-24T21:41:38.862Z,96503.34
2024-04-24T21:44:06.567Z,96506.30
2024-04-24T21:46:34.264Z,96506.87
2024-04-24T21:49:01.830Z,96516.13
2024-04-24T21:51:29.446Z,96521.80
2024-04-24T21:53:58.362Z,96524.64
2024-04-24T21:56:26.145Z,96532.34
2024-04-24T21:58:55.012Z,96533.29
2024-04-24T22:01:22.649Z,96529.92
2024-04-24T22:03:50.173Z,96526.02
2024-04-24T22:06:20.887Z,96525.00
2024-04-24T22:08:48.468Z,96524.34
2024-04-24T22:11:16.047Z,96526.07
2024-04-24T22:13:43.831Z,96524.64
2024-04-24T22:16:12.665Z,96512.59
2024-04-24T22:18:40.961Z,96514.08
2024-04-24T22:21:08.685Z,96520.20
2024-04-24T22:23:36.379Z,96532.00
2024-04-24T22:26:04.130Z,96523.58
2024-04-24T22:28:31.760Z,96531.27
2024-04-24T22:30:59.128Z,96513.72
2024-04-24T22:33:26.627Z,96519.06
2024-04-24T22:35:54.180Z,96518.17
2024-04-24T22:38:21.898Z,96521.14
2024-04-24T22:40:49.709Z,96518.72
2024-04-24T22:43:17.059Z,96520.56
2024-04-24T22:45:44.650Z,96516.56
2024-04-24T22:48:12.233Z,96505.98
2024-04-24T22:50:40.243Z,96497.34
2024-04-24T22:53:09.630Z,96494.55
2024-04-24T22:55:37.286Z,96491.34
2024-04-24T22:58:05.091Z,96488.54
2024-04-24T23:00:32.732Z,96478.84
2024-04-24T23:03:00.295Z,96475.27
2024-04-24T23:05:27.988Z,96468.98
2024-04-24T23:07:55.740Z,96471.94
2024-04-24T23:10:23.380Z,96478.99
2024-04-24T23:12:50.953Z,96480.26
2024-04-24T23:15:18.442Z,96483.03
2024-04-24T23:17:46.266Z,96489.51
2024-04-24T23:20:14.121Z,96485.14
2024-04-24T23:22:41.605Z,96482.92
2024-04-24T23:25:09.000Z,96488.25
2024-04-24T23:27:36.402Z,96493.00
2024-04-24T23:30:04.844Z,96496.85
2024-04-24T23:32:32.656Z,96501.16
2024-04-24T23:35:00.368Z,96499.85
2024-04-24T23:37:27.767Z,96497.74
2024-04-24T23:39:55.305Z,96488.41
2024-04-24T23:42:22.857Z,96503.06
2024-04-24T23:44:50.405Z,96514.34
2024-04-24T23:47:17.933Z,96507.58
2024-04-24T23:49:45.646Z,96496.27
2024-04-24T23:52:12.967Z,96497.72
2024-04-24T23:54:40.720Z,96498.59
2024-04-24T23:57:08.254Z,96510.87
2024-04-24T23:59:35.995Z,96511.95
